sensor_id;sensor_type;location;lat;lon;timestamp;temperature;humidity
26304;DHT22;70693;48.680;8.890;2024-02-15T00:02:15;16.00;94.30
26304;DHT22;70693;48.680;8.890;2024-02-15T00:04:40;16.00;94.50
26304;DHT22;70693;48.680;8.890;2024-02-15T00:07:08;15.90;94.60
26304;DHT22;70693;48.680;8.890;2024-02-15T00:09:34;15.80;94.70
26304;DHT22;70693;48.680;8.890;2024-02-15T00:11:59;15.70;94.80
26304;DHT22;70693;48.680;8.890;2024-02-15T00:14:26;15.70;94.90
26304;DHT22;70693;48.680;8.890;2024-02-15T00:16:53;15.60;95.00
26304;DHT22;70693;48.680;8.890;2024-02-15T00:19:18;15.50;95.10
26304;DHT22;70693;48.680;8.890;2024-02-15T00:21:44;15.40;95.20
26304;DHT22;70693;48.680;8.890;2024-02-15T00:24:10;15.40;95.30
26304;DHT22;70693;48.680;8.890;2024-02-15T00:26:35;15.30;95.40
26304;DHT22;70693;48.680;8.890;2024-02-15T00:29:01;15.30;95.50
26304;DHT22;70693;48.680;8.890;2024-02-15T00:31:27;15.20;95.60
26304;DHT22;70693;48.680;8.890;2024-02-15T00:33:53;15.10;95.70
26304;DHT22;70693;48.680;8.890;2024-02-15T00:36:19;15.00;95.80
26304;DHT22;70693;48.680;8.890;2024-02-15T00:38:45;15.00;95.90
26304;DHT22;70693;48.680;8.890;2024-02-15T00:41:10;14.90;96.00
26304;DHT22;70693;48.680;8.890;2024-02-15T00:43:36;14.80;96.00
26304;DHT22;70693;48.680;8.890;2024-02-15T00:46:02;14.80;96.10
26304;DHT22;70693;48.680;8.890;2024-02-15T00:48:28;14.70;96.20
26304;DHT22;70693;48.680;8.890;2024-02-15T00:50:55;14.70;96.30
26304;DHT22;70693;48.680;8.890;2024-02-15T00:53:21;14.60;96.40
26304;DHT22;70693;48.680;8.890;2024-02-15T00:55:46;14.50;96.50
26304;DHT22;70693;48.680;8.890;2024-02-15T00:58:12;14.50;96.60
26304;DHT22;70693;48.680;8.890;2024-02-15T01:00:38;14.40;96.70
26304;DHT22;70693;48.680;8.890;2024-02-15T01:03:04;14.40;96.70
26304;DHT22;70693;48.680;8.890;2024-02-15T01:05:29;14.30;96.80
26304;DHT22;70693;48.680;8.890;2024-02-15T01:07:56;14.30;96.90
26304;DHT22;70693;48.680;8.890;2024-02-15T01:10:22;14.20;97.00
26304;DHT22;70693;48.680;8.890;2024-02-15T01:12:49;14.20;97.10
26304;DHT22;70693;48.680;8.890;2024-02-15T01:15:15;14.10;97.20
26304;DHT22;70693;48.680;8.890;2024-02-15T01:17:45;14.10;97.30
26304;DHT22;70693;48.680;8.890;2024-02-15T01:20:11;14.00;97.30
26304;DHT22;70693;48.680;8.890;2024-02-15T01:22:37;14.00;97.30
26304;DHT22;70693;48.680;8.890;2024-02-15T01:25:03;13.90;97.40
26304;DHT22;70693;48.680;8.890;2024-02-15T01:27:28;13.90;97.50
26304;DHT22;70693;48.680;8.890;2024-02-15T01:29:56;13.90;97.60
26304;DHT22;70693;48.680;8.890;2024-02-15T01:32:22;13.80;97.60
26304;DHT22;70693;48.680;8.890;2024-02-15T01:34:47;13.80;97.70
26304;DHT22;70693;48.680;8.890;2024-02-15T01:37:13;13.80;97.80
26304;DHT22;70693;48.680;8.890;2024-02-15T01:39:38;13.70;97.80
26304;DHT22;70693;48.680;8.890;2024-02-15T01:42:05;13.70;97.90
26304;DHT22;70693;48.680;8.890;2024-02-15T01:44:31;13.60;98.00
26304;DHT22;70693;48.680;8.890;2024-02-15T01:46:57;13.60;98.00
26304;DHT22;70693;48.680;8.890;2024-02-15T01:49:24;13.60;98.10
26304;DHT22;70693;48.680;8.890;2024-02-15T01:51:52;13.50;98.10
26304;DHT22;70693;48.680;8.890;2024-02-15T01:54:19;13.50;98.50
26304;DHT22;70693;48.680;8.890;2024-02-15T01:56:45;13.50;98.20
26304;DHT22;70693;48.680;8.890;2024-02-15T01:59:13;13.40;98.30
26304;DHT22;70693;48.680;8.890;2024-02-15T02:01:41;13.40;98.30
26304;DHT22;70693;48.680;8.890;2024-02-15T02:04:07;13.40;98.40
26304;DHT22;70693;48.680;8.890;2024-02-15T02:06:34;13.40;98.50
26304;DHT22;70693;48.680;8.890;2024-02-15T02:08:59;13.30;98.50
26304;DHT22;70693;48.680;8.890;2024-02-15T02:11:27;13.30;98.50
26304;DHT22;70693;48.680;8.890;2024-02-15T02:13:55;13.30;98.60
26304;DHT22;70693;48.680;8.890;2024-02-15T02:16:29;13.20;98.60
26304;DHT22;70693;48.680;8.890;2024-02-15T02:18:57;13.20;98.70
26304;DHT22;70693;48.680;8.890;2024-02-15T02:21:27;13.20;99.00
26304;DHT22;70693;48.680;8.890;2024-02-15T02:23:57;13.10;98.80
26304;DHT22;70693;48.680;8.890;2024-02-15T02:26:24;13.10;98.80
26304;DHT22;70693;48.680;8.890;2024-02-15T02:28:50;13.10;98.90
26304;DHT22;70693;48.680;8.890;2024-02-15T02:31:18;13.10;99.20
26304;DHT22;70693;48.680;8.890;2024-02-15T02:33:52;13.10;99.00
26304;DHT22;70693;48.680;8.890;2024-02-15T02:36:19;13.00;99.00
26304;DHT22;70693;48.680;8.890;2024-02-15T02:38:45;13.00;99.00
26304;DHT22;70693;48.680;8.890;2024-02-15T02:41:14;13.00;99.00
26304;DHT22;70693;48.680;8.890;2024-02-15T02:43:40;12.90;99.10
26304;DHT22;70693;48.680;8.890;2024-02-15T02:46:06;12.90;99.10
26304;DHT22;70693;48.680;8.890;2024-02-15T02:48:32;12.90;99.50
26304;DHT22;70693;48.680;8.890;2024-02-15T02:50:57;12.80;99.20
26304;DHT22;70693;48.680;8.890;2024-02-15T02:53:24;12.90;99.20
26304;DHT22;70693;48.680;8.890;2024-02-15T02:55:51;12.80;99.20
26304;DHT22;70693;48.680;8.890;2024-02-15T02:58:16;12.80;99.30
26304;DHT22;70693;48.680;8.890;2024-02-15T03:00:42;12.80;99.30
26304;DHT22;70693;48.680;8.890;2024-02-15T03:03:08;12.80;99.70
26304;DHT22;70693;48.680;8.890;2024-02-15T03:05:34;12.80;99.40
26304;DHT22;70693;48.680;8.890;2024-02-15T03:08:00;12.70;99.40
26304;DHT22;70693;48.680;8.890;2024-02-15T03:10:26;12.80;99.50
26304;DHT22;70693;48.680;8.890;2024-02-15T03:12:52;12.70;99.50
26304;DHT22;70693;48.680;8.890;2024-02-15T03:15:18;12.70;99.50
26304;DHT22;70693;48.680;8.890;2024-02-15T03:17:45;12.70;99.60
26304;DHT22;70693;48.680;8.890;2024-02-15T03:20:12;12.70;99.60
26304;DHT22;70693;48.680;8.890;2024-02-15T03:22:53;12.60;99.60
26304;DHT22;70693;48.680;8.890;2024-02-15T03:25:19;12.60;99.60
26304;DHT22;70693;48.680;8.890;2024-02-15T03:27:45;12.60;99.70
26304;DHT22;70693;48.680;8.890;2024-02-15T03:30:11;12.60;99.70
26304;DHT22;70693;48.680;8.890;2024-02-15T03:32:37;12.60;99.70
26304;DHT22;70693;48.680;8.890;2024-02-15T03:35:03;12.50;99.70
26304;DHT22;70693;48.680;8.890;2024-02-15T03:37:29;12.60;99.80
26304;DHT22;70693;48.680;8.890;2024-02-15T03:39:55;12.50;99.80
26304;DHT22;70693;48.680;8.890;2024-02-15T03:42:20;12.50;99.80
26304;DHT22;70693;48.680;8.890;2024-02-15T03:44:46;12.50;99.80
26304;DHT22;70693;48.680;8.890;2024-02-15T03:47:13;12.50;99.80
26304;DHT22;70693;48.680;8.890;2024-02-15T03:49:41;12.50;99.90
26304;DHT22;70693;48.680;8.890;2024-02-15T03:52:08;12.50;99.90
26304;DHT22;70693;48.680;8.890;2024-02-15T03:54:36;12.40;99.90
26304;DHT22;70693;48.680;8.890;2024-02-15T03:57:01;12.40;99.90
26304;DHT22;70693;48.680;8.890;2024-02-15T03:59:27;12.40;99.90
26304;DHT22;70693;48.680;8.890;2024-02-15T04:01:53;12.40;99.90
26304;DHT22;70693;48.680;8.890;2024-02-15T04:04:19;12.40;99.90
26304;DHT22;70693;48.680;8.890;2024-02-15T04:06:50;12.40;99.90
26304;DHT22;70693;48.680;8.890;2024-02-15T04:09:17;12.40;99.90
26304;DHT22;70693;48.680;8.890;2024-02-15T04:11:52;12.40;99.90
26304;DHT22;70693;48.680;8.890;2024-02-15T04:14:22;12.40;99.90
26304;DHT22;70693;48.680;8.890;2024-02-15T04:16:48;12.40;99.90
26304;DHT22;70693;48.680;8.890;2024-02-15T04:19:14;12.30;99.90
26304;DHT22;70693;48.680;8.890;2024-02-15T04:21:40;12.30;99.90
26304;DHT22;70693;48.680;8.890;2024-02-15T04:24:09;12.30;99.90
26304;DHT22;70693;48.680;8.890;2024-02-15T04:26:34;12.30;99.90
26304;DHT22;70693;48.680;8.890;2024-02-15T04:29:02;12.30;99.90
26304;DHT22;70693;48.680;8.890;2024-02-15T04:31:28;12.30;99.90
26304;DHT22;70693;48.680;8.890;2024-02-15T04:33:54;12.30;99.90
26304;DHT22;70693;48.680;8.890;2024-02-15T04:36:21;12.20;99.90
26304;DHT22;70693;48.680;8.890;2024-02-15T04:38:52;12.20;99.90
26304;DHT22;70693;48.680;8.890;2024-02-15T04:41:18;12.20;99.90
26304;DHT22;70693;48.680;8.890;2024-02-15T04:43:51;12.20;99.90
26304;DHT22;70693;48.680;8.890;2024-02-15T04:46:19;12.20;99.90
26304;DHT22;70693;48.680;8.890;2024-02-15T04:48:50;12.20;99.90
26304;DHT22;70693;48.680;8.890;2024-02-15T04:51:16;12.20;99.90
26304;DHT22;70693;48.680;8.890;2024-02-15T04:53:43;12.20;99.90
26304;DHT22;70693;48.680;8.890;2024-02-15T04:56:09;12.20;99.90
26304;DHT22;70693;48.680;8.890;2024-02-15T04:58:42;12.10;99.90
26304;DHT22;70693;48.680;8.890;2024-02-15T05:01:14;12.10;99.90
26304;DHT22;70693;48.680;8.890;2024-02-15T05:03:44;12.10;99.90
26304;DHT22;70693;48.680;8.890;2024-02-15T05:06:10;12.10;99.90
26304;DHT22;70693;48.680;8.890;2024-02-15T05:08:39;12.10;99.90
26304;DHT22;70693;48.680;8.890;2024-02-15T05:11:11;12.10;99.90
26304;DHT22;70693;48.680;8.890;2024-02-15T05:13:43;12.10;99.90
26304;DHT22;70693;48.680;8.890;2024-02-15T05:16:10;12.10;99.90
26304;DHT22;70693;48.680;8.890;2024-02-15T05:18:36;12.10;99.90
26304;DHT22;70693;48.680;8.890;2024-02-15T05:21:03;12.10;99.90
26304;DHT22;70693;48.680;8.890;2024-02-15T05:23:30;12.00;99.90
26304;DHT22;70693;48.680;8.890;2024-02-15T05:25:55;12.00;99.90
26304;DHT22;70693;48.680;8.890;2024-02-15T05:28:22;12.00;99.90
26304;DHT22;70693;48.680;8.890;2024-02-15T05:31:18;12.00;99.90
26304;DHT22;70693;48.680;8.890;2024-02-15T05:33:45;12.00;99.90
26304;DHT22;70693;48.680;8.890;2024-02-15T05:36:17;12.00;99.90
26304;DHT22;70693;48.680;8.890;2024-02-15T05:38:50;12.00;99.90
26304;DHT22;70693;48.680;8.890;2024-02-15T05:41:16;12.00;99.90
26304;DHT22;70693;48.680;8.890;2024-02-15T05:43:42;12.00;99.90
26304;DHT22;70693;48.680;8.890;2024-02-15T05:46:09;12.00;99.90
26304;DHT22;70693;48.680;8.890;2024-02-15T05:48:36;12.00;99.90
26304;DHT22;70693;48.680;8.890;2024-02-15T05:51:08;12.00;99.90
26304;DHT22;70693;48.680;8.890;2024-02-15T05:53:34;12.00;99.90
26304;DHT22;70693;48.680;8.890;2024-02-15T05:56:05;11.90;99.90
26304;DHT22;70693;48.680;8.890;2024-02-15T05:58:32;11.90;99.90
26304;DHT22;70693;48.680;8.890;2024-02-15T06:00:58;12.00;99.90
26304;DHT22;70693;48.680;8.890;2024-02-15T06:03:30;11.90;99.90
26304;DHT22;70693;48.680;8.890;2024-02-15T06:05:59;12.00;99.90
26304;DHT22;70693;48.680;8.890;2024-02-15T06:08:28;12.00;99.90
26304;DHT22;70693;48.680;8.890;2024-02-15T06:10:56;11.90;99.90
26304;DHT22;70693;48.680;8.890;2024-02-15T06:13:23;11.90;99.90
26304;DHT22;70693;48.680;8.890;2024-02-15T06:15:49;11.90;99.90
26304;DHT22;70693;48.680;8.890;2024-02-15T06:18:30;11.90;99.90
26304;DHT22;70693;48.680;8.890;2024-02-15T06:20:59;11.90;99.90
26304;DHT22;70693;48.680;8.890;2024-02-15T06:23:26;11.90;99.90
26304;DHT22;70693;48.680;8.890;2024-02-15T06:25:54;11.90;99.90
26304;DHT22;70693;48.680;8.890;2024-02-15T06:28:21;11.90;99.90
26304;DHT22;70693;48.680;8.890;2024-02-15T06:31:09;11.90;99.90
26304;DHT22;70693;48.680;8.890;2024-02-15T06:33:54;11.90;99.90
26304;DHT22;70693;48.680;8.890;2024-02-15T06:36:53;11.80;99.90
26304;DHT22;70693;48.680;8.890;2024-02-15T06:39:37;11.90;99.90
26304;DHT22;70693;48.680;8.890;2024-02-15T06:42:15;11.90;99.90
26304;DHT22;70693;48.680;8.890;2024-02-15T06:44:46;11.90;99.90
26304;DHT22;70693;48.680;8.890;2024-02-15T06:47:12;11.90;99.90
26304;DHT22;70693;48.680;8.890;2024-02-15T06:49:41;11.90;99.90
26304;DHT22;70693;48.680;8.890;2024-02-15T06:52:10;11.90;99.90
26304;DHT22;70693;48.680;8.890;2024-02-15T06:54:40;11.90;99.90
26304;DHT22;70693;48.680;8.890;2024-02-15T06:57:06;11.90;99.90
26304;DHT22;70693;48.680;8.890;2024-02-15T06:59:32;11.90;99.90
26304;DHT22;70693;48.680;8.890;2024-02-15T07:01:59;12.00;99.90
26304;DHT22;70693;48.680;8.890;2024-02-15T07:04:24;12.00;99.90
26304;DHT22;70693;48.680;8.890;2024-02-15T07:06:53;12.10;99.90
26304;DHT22;70693;48.680;8.890;2024-02-15T07:09:23;12.10;99.90
26304;DHT22;70693;48.680;8.890;2024-02-15T07:11:50;12.10;99.90
26304;DHT22;70693;48.680;8.890;2024-02-15T07:14:16;12.20;99.90
26304;DHT22;70693;48.680;8.890;2024-02-15T07:16:49;12.30;99.90
26304;DHT22;70693;48.680;8.890;2024-02-15T07:19:16;12.30;99.90
26304;DHT22;70693;48.680;8.890;2024-02-15T07:21:42;12.40;99.90
26304;DHT22;70693;48.680;8.890;2024-02-15T07:24:08;12.40;99.90
26304;DHT22;70693;48.680;8.890;2024-02-15T07:26:33;12.50;99.90
26304;DHT22;70693;48.680;8.890;2024-02-15T07:29:01;12.60;99.90
26304;DHT22;70693;48.680;8.890;2024-02-15T07:31:29;12.60;99.90
26304;DHT22;70693;48.680;8.890;2024-02-15T07:33:55;12.70;99.90
26304;DHT22;70693;48.680;8.890;2024-02-15T07:36:21;12.80;99.90
26304;DHT22;70693;48.680;8.890;2024-02-15T07:38:48;12.80;99.90
26304;DHT22;70693;48.680;8.890;2024-02-15T07:41:15;12.90;99.90
26304;DHT22;70693;48.680;8.890;2024-02-15T07:43:41;13.00;99.90
26304;DHT22;70693;48.680;8.890;2024-02-15T07:46:07;13.10;99.90
26304;DHT22;70693;48.680;8.890;2024-02-15T07:48:33;13.10;99.90
26304;DHT22;70693;48.680;8.890;2024-02-15T07:50:58;13.20;99.90
26304;DHT22;70693;48.680;8.890;2024-02-15T07:53:24;13.30;99.90
26304;DHT22;70693;48.680;8.890;2024-02-15T07:55:50;13.40;99.90
26304;DHT22;70693;48.680;8.890;2024-02-15T07:58:16;13.40;99.80
26304;DHT22;70693;48.680;8.890;2024-02-15T08:00:45;13.50;99.70
26304;DHT22;70693;48.680;8.890;2024-02-15T08:03:11;13.60;99.60
26304;DHT22;70693;48.680;8.890;2024-02-15T08:05:36;13.60;99.50
26304;DHT22;70693;48.680;8.890;2024-02-15T08:08:03;13.70;99.40
26304;DHT22;70693;48.680;8.890;2024-02-15T08:10:29;13.80;99.30
26304;DHT22;70693;48.680;8.890;2024-02-15T08:12:54;13.80;99.20
26304;DHT22;70693;48.680;8.890;2024-02-15T08:15:23;13.90;99.10
26304;DHT22;70693;48.680;8.890;2024-02-15T08:17:50;14.00;99.00
26304;DHT22;70693;48.680;8.890;2024-02-15T08:20:16;14.10;98.90
26304;DHT22;70693;48.680;8.890;2024-02-15T08:22:47;14.20;98.80
26304;DHT22;70693;48.680;8.890;2024-02-15T08:25:13;14.20;98.70
26304;DHT22;70693;48.680;8.890;2024-02-15T08:27:42;14.30;98.60
26304;DHT22;70693;48.680;8.890;2024-02-15T08:30:11;14.40;98.50
26304;DHT22;70693;48.680;8.890;2024-02-15T08:32:41;14.50;98.30
26304;DHT22;70693;48.680;8.890;2024-02-15T08:35:12;14.50;98.20
26304;DHT22;70693;48.680;8.890;2024-02-15T08:37:38;14.60;98.10
26304;DHT22;70693;48.680;8.890;2024-02-15T08:40:06;14.60;98.00
26304;DHT22;70693;48.680;8.890;2024-02-15T08:42:44;14.70;97.90
26304;DHT22;70693;48.680;8.890;2024-02-15T08:45:11;14.80;97.80
26304;DHT22;70693;48.680;8.890;2024-02-15T08:47:42;14.80;97.70
26304;DHT22;70693;48.680;8.890;2024-02-15T08:50:09;14.90;97.60
26304;DHT22;70693;48.680;8.890;2024-02-15T08:52:38;15.00;97.50
26304;DHT22;70693;48.680;8.890;2024-02-15T08:55:06;15.00;97.30
26304;DHT22;70693;48.680;8.890;2024-02-15T08:57:33;15.10;97.20
26304;DHT22;70693;48.680;8.890;2024-02-15T08:59:59;15.10;97.20
26304;DHT22;70693;48.680;8.890;2024-02-15T09:02:25;15.30;97.10
26304;DHT22;70693;48.680;8.890;2024-02-15T09:04:51;15.30;97.00
26304;DHT22;70693;48.680;8.890;2024-02-15T09:07:16;15.40;97.00
26304;DHT22;70693;48.680;8.890;2024-02-15T09:09:42;15.50;96.90
26304;DHT22;70693;48.680;8.890;2024-02-15T09:12:08;15.50;96.80
26304;DHT22;70693;48.680;8.890;2024-02-15T09:14:33;15.60;96.70
26304;DHT22;70693;48.680;8.890;2024-02-15T09:17:00;15.70;96.70
26304;DHT22;70693;48.680;8.890;2024-02-15T09:19:26;15.80;96.60
26304;DHT22;70693;48.680;8.890;2024-02-15T09:21:51;15.80;96.50
26304;DHT22;70693;48.680;8.890;2024-02-15T09:24:17;16.00;96.40
26304;DHT22;70693;48.680;8.890;2024-02-15T09:26:43;16.00;96.30
26304;DHT22;70693;48.680;8.890;2024-02-15T09:29:10;16.20;96.20
26304;DHT22;70693;48.680;8.890;2024-02-15T09:31:35;16.20;96.10
26304;DHT22;70693;48.680;8.890;2024-02-15T09:34:02;16.30;96.00
26304;DHT22;70693;48.680;8.890;2024-02-15T09:36:36;16.40;95.90
26304;DHT22;70693;48.680;8.890;2024-02-15T09:39:05;16.50;95.80
26304;DHT22;70693;48.680;8.890;2024-02-15T09:41:31;16.60;96.00
26304;DHT22;70693;48.680;8.890;2024-02-15T09:43:58;16.70;95.60
26304;DHT22;70693;48.680;8.890;2024-02-15T09:46:23;16.80;95.50
26304;DHT22;70693;48.680;8.890;2024-02-15T09:48:56;16.90;95.40
26304;DHT22;70693;48.680;8.890;2024-02-15T09:51:26;17.00;95.30
26304;DHT22;70693;48.680;8.890;2024-02-15T09:53:52;17.10;95.20
26304;DHT22;70693;48.680;8.890;2024-02-15T09:56:20;17.20;95.10
26304;DHT22;70693;48.680;8.890;2024-02-15T09:58:47;17.30;95.00
26304;DHT22;70693;48.680;8.890;2024-02-15T10:01:13;17.40;94.90
26304;DHT22;70693;48.680;8.890;2024-02-15T10:03:40;17.50;94.80
26304;DHT22;70693;48.680;8.890;2024-02-15T10:06:06;17.60;94.70
26304;DHT22;70693;48.680;8.890;2024-02-15T10:08:32;17.70;94.60
26304;DHT22;70693;48.680;8.890;2024-02-15T10:11:08;17.80;94.40
26304;DHT22;70693;48.680;8.890;2024-02-15T10:13:35;17.90;94.30
26304;DHT22;70693;48.680;8.890;2024-02-15T10:16:17;18.00;94.20
26304;DHT22;70693;48.680;8.890;2024-02-15T10:18:44;18.10;94.10
26304;DHT22;70693;48.680;8.890;2024-02-15T10:21:10;18.20;94.00
26304;DHT22;70693;48.680;8.890;2024-02-15T10:24:02;18.30;93.80
26304;DHT22;70693;48.680;8.890;2024-02-15T10:26:30;18.40;93.70
26304;DHT22;70693;48.680;8.890;2024-02-15T10:29:09;18.50;93.60
26304;DHT22;70693;48.680;8.890;2024-02-15T10:31:36;18.60;93.50
26304;DHT22;70693;48.680;8.890;2024-02-15T10:34:03;18.70;93.40
26304;DHT22;70693;48.680;8.890;2024-02-15T10:36:30;18.80;93.20
26304;DHT22;70693;48.680;8.890;2024-02-15T10:39:13;18.80;93.10
26304;DHT22;70693;48.680;8.890;2024-02-15T10:41:52;19.00;93.00
26304;DHT22;70693;48.680;8.890;2024-02-15T10:44:20;19.00;92.80
26304;DHT22;70693;48.680;8.890;2024-02-15T10:46:47;19.10;92.70
26304;DHT22;70693;48.680;8.890;2024-02-15T10:49:20;19.20;92.60
26304;DHT22;70693;48.680;8.890;2024-02-15T10:54:23;19.50;92.40
26304;DHT22;70693;48.680;8.890;2024-02-15T10:56:54;19.50;92.20
26304;DHT22;70693;48.680;8.890;2024-02-15T10:59:24;19.60;92.10
26304;DHT22;70693;48.680;8.890;2024-02-15T11:01:54;19.70;92.00
26304;DHT22;70693;48.680;8.890;2024-02-15T11:04:25;19.80;91.90
26304;DHT22;70693;48.680;8.890;2024-02-15T11:06:58;19.90;91.80
26304;DHT22;70693;48.680;8.890;2024-02-15T11:09:24;19.90;91.70
26304;DHT22;70693;48.680;8.890;2024-02-15T11:11:54;20.00;91.60
26304;DHT22;70693;48.680;8.890;2024-02-15T11:14:30;20.10;91.60
26304;DHT22;70693;48.680;8.890;2024-02-15T11:17:01;20.10;91.50
26304;DHT22;70693;48.680;8.890;2024-02-15T11:22:15;20.20;91.30
26304;DHT22;70693;48.680;8.890;2024-02-15T11:24:49;20.30;91.20
26304;DHT22;70693;48.680;8.890;2024-02-15T11:27:28;20.40;91.20
26304;DHT22;70693;48.680;8.890;2024-02-15T11:29:57;20.40;91.10
26304;DHT22;70693;48.680;8.890;2024-02-15T11:32:42;20.50;91.00
26304;DHT22;70693;48.680;8.890;2024-02-15T11:35:23;20.50;90.90
26304;DHT22;70693;48.680;8.890;2024-02-15T11:40:16;20.60;90.70
26304;DHT22;70693;48.680;8.890;2024-02-15T11:42:45;20.70;90.70
26304;DHT22;70693;48.680;8.890;2024-02-15T11:45:12;20.60;90.70
26304;DHT22;70693;48.680;8.890;2024-02-15T11:47:39;20.60;90.60
26304;DHT22;70693;48.680;8.890;2024-02-15T11:50:10;20.70;90.60
26304;DHT22;70693;48.680;8.890;2024-02-15T11:52:39;20.70;90.40
26304;DHT22;70693;48.680;8.890;2024-02-15T11:55:07;20.80;90.30
26304;DHT22;70693;48.680;8.890;2024-02-15T11:57:41;20.90;90.20
26304;DHT22;70693;48.680;8.890;2024-02-15T12:00:23;20.90;90.50
26304;DHT22;70693;48.680;8.890;2024-02-15T12:03:08;21.00;90.00
26304;DHT22;70693;48.680;8.890;2024-02-15T12:05:56;21.00;90.00
26304;DHT22;70693;48.680;8.890;2024-02-15T12:08:46;21.10;89.90
26304;DHT22;70693;48.680;8.890;2024-02-15T12:11:31;21.10;89.70
26304;DHT22;70693;48.680;8.890;2024-02-15T12:14:15;21.10;89.60
26304;DHT22;70693;48.680;8.890;2024-02-15T12:19:48;21.20;89.60
26304;DHT22;70693;48.680;8.890;2024-02-15T12:22:42;21.20;89.50
26304;DHT22;70693;48.680;8.890;2024-02-15T12:25:07;21.20;89.50
26304;DHT22;70693;48.680;8.890;2024-02-15T12:27:40;21.20;89.40
26304;DHT22;70693;48.680;8.890;2024-02-15T12:30:06;21.20;90.00
26304;DHT22;70693;48.680;8.890;2024-02-15T12:32:34;21.20;89.30
26304;DHT22;70693;48.680;8.890;2024-02-15T12:35:19;21.20;89.30
26304;DHT22;70693;48.680;8.890;2024-02-15T12:38:01;21.20;90.00
26304;DHT22;70693;48.680;8.890;2024-02-15T12:40:32;21.30;89.20
26304;DHT22;70693;48.680;8.890;2024-02-15T12:42:58;21.20;89.90
26304;DHT22;70693;48.680;8.890;2024-02-15T12:45:26;21.20;89.10
26304;DHT22;70693;48.680;8.890;2024-02-15T12:47:53;21.20;89.80
26304;DHT22;70693;48.680;8.890;2024-02-15T12:50:27;21.30;89.00
26304;DHT22;70693;48.680;8.890;2024-02-15T12:52:54;21.30;89.00
26304;DHT22;70693;48.680;8.890;2024-02-15T12:55:22;21.20;88.90
26304;DHT22;70693;48.680;8.890;2024-02-15T12:57:54;21.20;88.90
26304;DHT22;70693;48.680;8.890;2024-02-15T13:00:26;21.30;88.90
26304;DHT22;70693;48.680;8.890;2024-02-15T13:02:57;21.30;88.80
26304;DHT22;70693;48.680;8.890;2024-02-15T13:05:26;21.20;88.80
26304;DHT22;70693;48.680;8.890;2024-02-15T13:07:53;21.20;88.80
26304;DHT22;70693;48.680;8.890;2024-02-15T13:10:23;21.20;88.80
26304;DHT22;70693;48.680;8.890;2024-02-15T13:12:54;21.20;88.80
26304;DHT22;70693;48.680;8.890;2024-02-15T13:15:21;21.20;88.70
26304;DHT22;70693;48.680;8.890;2024-02-15T13:17:51;21.20;88.80
26304;DHT22;70693;48.680;8.890;2024-02-15T13:20:18;21.10;88.70
26304;DHT22;70693;48.680;8.890;2024-02-15T13:22:46;21.20;88.80
26304;DHT22;70693;48.680;8.890;2024-02-15T13:25:15;21.10;88.70
26304;DHT22;70693;48.680;8.890;2024-02-15T13:27:46;21.10;88.70
26304;DHT22;70693;48.680;8.890;2024-02-15T13:30:12;21.10;88.80
26304;DHT22;70693;48.680;8.890;2024-02-15T13:32:39;21.10;88.90
26304;DHT22;70693;48.680;8.890;2024-02-15T13:35:09;21.10;88.90
26304;DHT22;70693;48.680;8.890;2024-02-15T13:37:48;21.10;88.90
26304;DHT22;70693;48.680;8.890;2024-02-15T13:40:14;21.00;88.90
26304;DHT22;70693;48.680;8.890;2024-02-15T13:42:46;21.00;89.00
26304;DHT22;70693;48.680;8.890;2024-02-15T13:45:30;21.00;89.00
26304;DHT22;70693;48.680;8.890;2024-02-15T13:47:58;21.00;89.00
26304;DHT22;70693;48.680;8.890;2024-02-15T13:50:24;20.90;89.10
26304;DHT22;70693;48.680;8.890;2024-02-15T13:52:50;20.90;89.10
26304;DHT22;70693;48.680;8.890;2024-02-15T13:55:17;20.90;89.20
26304;DHT22;70693;48.680;8.890;2024-02-15T13:57:45;20.80;89.20
26304;DHT22;70693;48.680;8.890;2024-02-15T14:00:13;20.80;89.20
26304;DHT22;70693;48.680;8.890;2024-02-15T14:02:54;20.80;89.40
26304;DHT22;70693;48.680;8.890;2024-02-15T14:05:22;20.70;89.40
26304;DHT22;70693;48.680;8.890;2024-02-15T14:07:51;20.70;89.50
26304;DHT22;70693;48.680;8.890;2024-02-15T14:10:21;20.70;89.60
26304;DHT22;70693;48.680;8.890;2024-02-15T14:12:48;20.70;89.70
26304;DHT22;70693;48.680;8.890;2024-02-15T14:15:18;20.60;89.70
26304;DHT22;70693;48.680;8.890;2024-02-15T14:17:44;20.60;89.80
26304;DHT22;70693;48.680;8.890;2024-02-15T14:20:11;20.60;89.80
26304;DHT22;70693;48.680;8.890;2024-02-15T14:22:49;20.60;89.90
26304;DHT22;70693;48.680;8.890;2024-02-15T14:25:21;20.50;89.90
26304;DHT22;70693;48.680;8.890;2024-02-15T14:27:47;20.50;90.00
26304;DHT22;70693;48.680;8.890;2024-02-15T14:30:13;20.50;90.00
26304;DHT22;70693;48.680;8.890;2024-02-15T14:32:57;20.50;90.00
26304;DHT22;70693;48.680;8.890;2024-02-15T14:35:31;20.40;90.00
26304;DHT22;70693;48.680;8.890;2024-02-15T14:38:04;20.40;90.10
26304;DHT22;70693;48.680;8.890;2024-02-15T14:40:38;20.40;90.10
26304;DHT22;70693;48.680;8.890;2024-02-15T14:43:05;20.30;90.10
26304;DHT22;70693;48.680;8.890;2024-02-15T14:45:34;20.30;90.20
26304;DHT22;70693;48.680;8.890;2024-02-15T14:48:02;20.30;90.20
26304;DHT22;70693;48.680;8.890;2024-02-15T14:50:28;20.20;90.30
26304;DHT22;70693;48.680;8.890;2024-02-15T14:52:54;20.20;90.30
26304;DHT22;70693;48.680;8.890;2024-02-15T14:55:20;20.10;90.30
26304;DHT22;70693;48.680;8.890;2024-02-15T14:57:46;20.10;90.40
26304;DHT22;70693;48.680;8.890;2024-02-15T15:00:13;20.10;90.50
26304;DHT22;70693;48.680;8.890;2024-02-15T15:02:40;20.00;90.50
26304;DHT22;70693;48.680;8.890;2024-02-15T15:05:07;20.00;90.50
26304;DHT22;70693;48.680;8.890;2024-02-15T15:07:52;20.00;90.60
26304;DHT22;70693;48.680;8.890;2024-02-15T15:10:36;19.90;90.60
26304;DHT22;70693;48.680;8.890;2024-02-15T15:13:20;19.90;90.60
26304;DHT22;70693;48.680;8.890;2024-02-15T15:15:46;19.90;90.70
26304;DHT22;70693;48.680;8.890;2024-02-15T15:18:13;19.80;91.10
26304;DHT22;70693;48.680;8.890;2024-02-15T15:20:39;19.80;90.80
26304;DHT22;70693;48.680;8.890;2024-02-15T15:23:05;19.80;90.90
26304;DHT22;70693;48.680;8.890;2024-02-15T15:25:35;19.70;90.90
26304;DHT22;70693;48.680;8.890;2024-02-15T15:28:03;19.70;90.90
26304;DHT22;70693;48.680;8.890;2024-02-15T15:30:30;19.60;90.90
26304;DHT22;70693;48.680;8.890;2024-02-15T15:32:56;19.60;90.90
26304;DHT22;70693;48.680;8.890;2024-02-15T15:35:22;19.60;91.00
26304;DHT22;70693;48.680;8.890;2024-02-15T15:37:49;19.60;91.00
26304;DHT22;70693;48.680;8.890;2024-02-15T15:40:17;19.60;91.10
26304;DHT22;70693;48.680;8.890;2024-02-15T15:42:43;19.50;91.00
26304;DHT22;70693;48.680;8.890;2024-02-15T15:45:11;19.50;91.10
26304;DHT22;70693;48.680;8.890;2024-02-15T15:47:38;19.50;91.10
26304;DHT22;70693;48.680;8.890;2024-02-15T15:50:10;19.40;91.10
26304;DHT22;70693;48.680;8.890;2024-02-15T15:52:37;19.40;91.20